Thursday, October 19, 2017, 1:20 PM CDT
Back to Local

KBTR, Baton Rouge Metro Ryan Field

Location: Baton Rouge, LA, United States Lat: 30.533
Local Time: 1:20 PM CDT (18:20 GMT) Lon: -91.15
Time Zone: US/Central Elev: 68 ft

Show me the last for .
Show Coded

Time T Td Feel RH Dir Speed Gust Alt SLP Vis Weather Sky Remarks
2017-10-19 12:53 81 62 82 52 40° 7 - 30.18 30.17 10 SCT031 6-hr Min Temp (1pm): 55.0°F
6-hr Max Temp (1pm): 81.0°F
2017-10-19 11:53 78 60 80 54 30° 12 - 30.20 30.19 10 CLR None
2017-10-19 10:53 74 59 77 59 50° 9 - 30.21 30.21 10 CLR None
2017-10-19 09:53 69 58 - 67 70° 8 - 30.21 30.21 10 CLR None
2017-10-19 08:53 62 56 - 80 50° 7 - 30.20 30.20 10 CLR None
2017-10-19 07:53 57 53 - 86 30° 5 - 30.18 30.17 9 CLR None
2017-10-19 06:53 55 52 - 89 40° 5 - 30.16 30.16 10 CLR 6-hr Min Temp (7am): 55.0°F
6-hr Max Temp (7am): 61.0°F
2017-10-19 05:53 56 53 - 90 30° 5 - 30.16 30.16 10 CLR None
2017-10-19 04:53 57 54 - 89 40° 3 - 30.15 30.15 9 CLR None
2017-10-19 03:53 58 55 - 90 50° 3 - 30.15 30.14 10 CLR None
2017-10-19 02:53 59 57 - 93 50° 5 - 30.15 30.15 10 CLR None
2017-10-19 01:53 60 59 - 96 80° 5 - 30.16 30.16 10 CLR None
2017-10-19 00:53 60 59 - 96 60° 5 - 30.17 30.17 10 CLR 6-hr Min Temp (1am): 60.1°F
6-hr Max Temp (1am): 71.1°F
24-hr Min Temp (1am): 53.1°F
24-hr Max Temp (1am): 82.0°F
2017-10-18 23:53 63 60 - 90 110° 5 - 30.18 30.18 10 CLR None
2017-10-18 22:53 63 60 - 90 70° 5 - 30.18 30.18 10 CLR None
2017-10-18 21:53 64 60 - 86 80° 5 - 30.18 30.17 10 CLR None
2017-10-18 20:53 66 61 - 83 80° 3 - 30.17 30.16 10 CLR None
2017-10-18 19:53 69 61 - 75 - Calm - 30.15 30.15 10 CLR None
2017-10-18 18:53 71 61 76 70 40° 5 - 30.13 30.13 10 CLR 6-hr Min Temp (7pm): 71.1°F
6-hr Max Temp (7pm): 82.0°F
2017-10-18 17:53 78 58 79 50 50° 5 - 30.12 30.11 10 CLR None
2017-10-18 16:53 81 57 81 44 60° 5 - 30.12 30.11 10 CLR None
2017-10-18 15:53 81 57 81 44 100° 7 - 30.13 30.12 10 CLR None
2017-10-18 14:53 80 57 81 45 - - - 30.13 30.13 10 CLR None
2017-10-18 13:53 80 58 81 46 20° 7 - 30.15 30.15 10 CLR None

Support USWX by starting your Amazon purchase here.